sensor_id;sensor_type;location;lat;lon;timestamp;pressure;altitude;pressure_sealevel;temperature;humidity
52441;BME280;39611;46.062;8.950;2023-03-04T00:02:05;96627.59;;;5.65;80.65
52441;BME280;39611;46.062;8.950;2023-03-04T00:04:32;96635.69;;;5.46;81.80
52441;BME280;39611;46.062;8.950;2023-03-04T00:06:58;96632.97;;;5.41;81.96
52441;BME280;39611;46.062;8.950;2023-03-04T00:09:25;96636.34;;;5.54;81.23
52441;BME280;39611;46.062;8.950;2023-03-04T00:11:51;96637.53;;;5.63;80.98
52441;BME280;39611;46.062;8.950;2023-03-04T00:14:18;96637.84;;;5.50;81.50
52441;BME280;39611;46.062;8.950;2023-03-04T00:16:44;96631.38;;;5.40;81.52
52441;BME280;39611;46.062;8.950;2023-03-04T00:19:11;96641.41;;;5.43;81.54
52441;BME280;39611;46.062;8.950;2023-03-04T00:21:37;96636.94;;;5.44;81.59
52441;BME280;39611;46.062;8.950;2023-03-04T00:24:04;96638.59;;;5.33;82.22
52441;BME280;39611;46.062;8.950;2023-03-04T00:26:30;96633.44;;;5.38;81.36
52441;BME280;39611;46.062;8.950;2023-03-04T00:28:57;96641.72;;;5.47;80.56
52441;BME280;39611;46.062;8.950;2023-03-04T00:31:23;96636.81;;;5.51;80.83
52441;BME280;39611;46.062;8.950;2023-03-04T00:33:50;96648.03;;;5.63;80.54
52441;BME280;39611;46.062;8.950;2023-03-04T00:36:16;96641.19;;;5.62;80.52
52441;BME280;39611;46.062;8.950;2023-03-04T00:38:42;96647.50;;;5.61;80.94
52441;BME280;39611;46.062;8.950;2023-03-04T00:41:09;96645.34;;;5.58;80.91
52441;BME280;39611;46.062;8.950;2023-03-04T00:43:35;96641.59;;;5.54;80.50
52441;BME280;39611;46.062;8.950;2023-03-04T00:46:02;96649.38;;;5.48;80.48
52441;BME280;39611;46.062;8.950;2023-03-04T00:48:28;96645.56;;;5.56;80.60
52441;BME280;39611;46.062;8.950;2023-03-04T00:50:55;96645.16;;;5.47;80.69
52441;BME280;39611;46.062;8.950;2023-03-04T00:53:21;96641.09;;;5.40;80.79
52441;BME280;39611;46.062;8.950;2023-03-04T00:55:49;96643.34;;;5.48;80.76
52441;BME280;39611;46.062;8.950;2023-03-04T00:58:16;96638.78;;;5.43;80.37
52441;BME280;39611;46.062;8.950;2023-03-04T01:00:42;96642.81;;;5.34;79.77
52441;BME280;39611;46.062;8.950;2023-03-04T01:03:08;96643.56;;;5.46;80.39
52441;BME280;39611;46.062;8.950;2023-03-04T01:05:35;96642.97;;;5.28;80.99
52441;BME280;39611;46.062;8.950;2023-03-04T01:08:02;96639.59;;;5.15;81.56
52441;BME280;39611;46.062;8.950;2023-03-04T01:10:28;96642.81;;;5.06;81.83
52441;BME280;39611;46.062;8.950;2023-03-04T01:12:55;96636.75;;;5.17;81.13
52441;BME280;39611;46.062;8.950;2023-03-04T01:15:22;96636.75;;;5.17;80.92
52441;BME280;39611;46.062;8.950;2023-03-04T01:17:48;96633.44;;;5.10;81.67
52441;BME280;39611;46.062;8.950;2023-03-04T01:20:15;96639.47;;;5.22;80.85
52441;BME280;39611;46.062;8.950;2023-03-04T01:22:42;96636.88;;;5.10;80.92
52441;BME280;39611;46.062;8.950;2023-03-04T01:25:09;96630.59;;;5.11;80.69
52441;BME280;39611;46.062;8.950;2023-03-04T01:27:35;96629.44;;;5.19;80.49
52441;BME280;39611;46.062;8.950;2023-03-04T01:30:03;96629.53;;;5.24;80.45
52441;BME280;39611;46.062;8.950;2023-03-04T01:32:29;96622.38;;;5.19;81.00
52441;BME280;39611;46.062;8.950;2023-03-04T01:34:56;96625.59;;;5.10;81.51
52441;BME280;39611;46.062;8.950;2023-03-04T01:37:22;96625.06;;;4.96;81.95
52441;BME280;39611;46.062;8.950;2023-03-04T01:39:49;96628.88;;;5.17;81.01
52441;BME280;39611;46.062;8.950;2023-03-04T01:42:20;96620.91;;;5.12;81.59
52441;BME280;39611;46.062;8.950;2023-03-04T01:44:48;96620.91;;;5.12;81.27
52441;BME280;39611;46.062;8.950;2023-03-04T01:47:16;96628.22;;;4.98;82.01
52441;BME280;39611;46.062;8.950;2023-03-04T01:49:43;96621.41;;;4.97;82.37
52441;BME280;39611;46.062;8.950;2023-03-04T01:52:12;96610.31;;;4.78;82.74
52441;BME280;39611;46.062;8.950;2023-03-04T01:54:39;96618.84;;;4.85;82.24
52441;BME280;39611;46.062;8.950;2023-03-04T01:57:15;96607.41;;;4.91;82.09
52441;BME280;39611;46.062;8.950;2023-03-04T01:59:42;96610.59;;;4.93;82.23
52441;BME280;39611;46.062;8.950;2023-03-04T02:02:09;96605.63;;;4.80;82.86
52441;BME280;39611;46.062;8.950;2023-03-04T02:04:35;96596.94;;;4.91;82.10
52441;BME280;39611;46.062;8.950;2023-03-04T02:07:03;96595.78;;;4.87;82.18
52441;BME280;39611;46.062;8.950;2023-03-04T02:09:31;96599.25;;;4.76;82.55
52441;BME280;39611;46.062;8.950;2023-03-04T02:11:58;96594.88;;;4.93;81.87
52441;BME280;39611;46.062;8.950;2023-03-04T02:14:25;96583.72;;;4.86;82.04
52441;BME280;39611;46.062;8.950;2023-03-04T02:16:52;96590.34;;;4.77;82.49
52441;BME280;39611;46.062;8.950;2023-03-04T02:19:30;96585.97;;;4.94;81.53
52441;BME280;39611;46.062;8.950;2023-03-04T02:22:02;96586.38;;;5.03;81.16
52441;BME280;39611;46.062;8.950;2023-03-04T02:24:34;96580.91;;;5.04;80.84
52441;BME280;39611;46.062;8.950;2023-03-04T02:27:01;96575.97;;;4.91;80.74
52441;BME280;39611;46.062;8.950;2023-03-04T02:29:28;96578.94;;;5.12;80.34
52441;BME280;39611;46.062;8.950;2023-03-04T02:31:54;96571.03;;;4.95;81.88
52441;BME280;39611;46.062;8.950;2023-03-04T02:34:24;96566.03;;;4.93;81.75
52441;BME280;39611;46.062;8.950;2023-03-04T02:36:53;96559.94;;;4.76;82.59
52441;BME280;39611;46.062;8.950;2023-03-04T02:41:47;96566.38;;;4.56;82.82
52441;BME280;39611;46.062;8.950;2023-03-04T02:44:37;96566.56;;;4.67;82.66
52441;BME280;39611;46.062;8.950;2023-03-04T02:47:06;96560.63;;;4.71;82.51
52441;BME280;39611;46.062;8.950;2023-03-04T02:49:35;96566.03;;;4.65;82.78
52441;BME280;39611;46.062;8.950;2023-03-04T02:52:06;96564.28;;;4.70;81.40
52441;BME280;39611;46.062;8.950;2023-03-04T02:54:33;96566.41;;;4.85;81.28
52441;BME280;39611;46.062;8.950;2023-03-04T02:57:03;96561.81;;;4.92;81.57
52441;BME280;39611;46.062;8.950;2023-03-04T02:59:29;96567.50;;;4.72;82.24
52441;BME280;39611;46.062;8.950;2023-03-04T03:01:56;96566.84;;;4.53;82.61
52441;BME280;39611;46.062;8.950;2023-03-04T03:04:23;96555.41;;;4.71;81.83
52441;BME280;39611;46.062;8.950;2023-03-04T03:06:50;96557.50;;;4.86;81.70
52441;BME280;39611;46.062;8.950;2023-03-04T03:09:18;96554.41;;;4.60;82.71
52441;BME280;39611;46.062;8.950;2023-03-04T03:11:44;96554.19;;;4.62;82.35
52441;BME280;39611;46.062;8.950;2023-03-04T03:14:11;96560.78;;;4.65;82.42
52441;BME280;39611;46.062;8.950;2023-03-04T03:16:38;96551.41;;;4.69;81.86
52441;BME280;39611;46.062;8.950;2023-03-04T03:19:04;96558.47;;;4.80;81.35
52441;BME280;39611;46.062;8.950;2023-03-04T03:21:31;96551.69;;;4.55;82.67
52441;BME280;39611;46.062;8.950;2023-03-04T03:23:57;96549.75;;;4.63;81.97
52441;BME280;39611;46.062;8.950;2023-03-04T03:26:24;96556.25;;;4.48;82.58
52441;BME280;39611;46.062;8.950;2023-03-04T03:28:50;96548.28;;;4.43;82.86
52441;BME280;39611;46.062;8.950;2023-03-04T03:31:17;96548.97;;;4.50;82.31
52441;BME280;39611;46.062;8.950;2023-03-04T03:33:45;96546.97;;;4.69;82.13
52441;BME280;39611;46.062;8.950;2023-03-04T03:36:11;96542.94;;;4.50;82.72
52441;BME280;39611;46.062;8.950;2023-03-04T03:38:38;96546.13;;;4.52;82.52
52441;BME280;39611;46.062;8.950;2023-03-04T03:41:04;96548.66;;;4.47;82.76
52441;BME280;39611;46.062;8.950;2023-03-04T03:43:31;96545.59;;;4.67;81.91
52441;BME280;39611;46.062;8.950;2023-03-04T03:45:57;96536.44;;;4.52;82.52
52441;BME280;39611;46.062;8.950;2023-03-04T03:48:24;96536.63;;;4.63;82.39
52441;BME280;39611;46.062;8.950;2023-03-04T03:50:50;96538.22;;;4.64;82.19
52441;BME280;39611;46.062;8.950;2023-03-04T03:53:16;96539.66;;;4.43;82.99
52441;BME280;39611;46.062;8.950;2023-03-04T03:55:43;96536.22;;;4.42;82.53
52441;BME280;39611;46.062;8.950;2023-03-04T03:58:09;96533.97;;;4.34;82.90
52441;BME280;39611;46.062;8.950;2023-03-04T04:00:36;96530.78;;;4.44;82.77
52441;BME280;39611;46.062;8.950;2023-03-04T04:03:02;96535.88;;;4.50;82.20
52441;BME280;39611;46.062;8.950;2023-03-04T04:05:29;96532.66;;;4.60;82.10
52441;BME280;39611;46.062;8.950;2023-03-04T04:07:55;96530.06;;;4.48;82.67
52441;BME280;39611;46.062;8.950;2023-03-04T04:10:22;96534.97;;;4.45;82.77
52441;BME280;39611;46.062;8.950;2023-03-04T04:12:48;96534.59;;;4.65;81.66
52441;BME280;39611;46.062;8.950;2023-03-04T04:15:15;96527.59;;;4.42;82.49
52441;BME280;39611;46.062;8.950;2023-03-04T04:17:41;96527.34;;;4.43;82.56
52441;BME280;39611;46.062;8.950;2023-03-04T04:20:08;96534.38;;;4.54;82.21
52441;BME280;39611;46.062;8.950;2023-03-04T04:22:34;96534.19;;;4.44;82.44
52441;BME280;39611;46.062;8.950;2023-03-04T04:25:01;96533.63;;;4.30;83.13
52441;BME280;39611;46.062;8.950;2023-03-04T04:27:27;96530.47;;;4.28;82.91
52441;BME280;39611;46.062;8.950;2023-03-04T04:29:54;96538.06;;;4.30;83.06
52441;BME280;39611;46.062;8.950;2023-03-04T04:32:20;96525.09;;;4.35;82.64
52441;BME280;39611;46.062;8.950;2023-03-04T04:34:47;96529.66;;;4.28;82.92
52441;BME280;39611;46.062;8.950;2023-03-04T04:37:13;96528.75;;;4.34;83.10
52441;BME280;39611;46.062;8.950;2023-03-04T04:39:40;96518.28;;;4.34;82.81
52441;BME280;39611;46.062;8.950;2023-03-04T04:42:08;96529.41;;;4.41;82.42
52441;BME280;39611;46.062;8.950;2023-03-04T04:44:35;96531.94;;;4.36;82.35
52441;BME280;39611;46.062;8.950;2023-03-04T04:47:05;96525.81;;;4.59;81.30
52441;BME280;39611;46.062;8.950;2023-03-04T04:49:32;96520.81;;;4.57;81.32
52441;BME280;39611;46.062;8.950;2023-03-04T04:51:58;96530.25;;;4.58;81.18
52441;BME280;39611;46.062;8.950;2023-03-04T04:54:25;96527.25;;;4.67;80.58
52441;BME280;39611;46.062;8.950;2023-03-04T04:56:52;96523.44;;;4.57;80.34
52441;BME280;39611;46.062;8.950;2023-03-04T04:59:18;96522.19;;;4.60;80.92
52441;BME280;39611;46.062;8.950;2023-03-04T05:01:44;96527.06;;;4.56;81.16
52441;BME280;39611;46.062;8.950;2023-03-04T05:04:11;96527.75;;;4.64;80.52
52441;BME280;39611;46.062;8.950;2023-03-04T05:06:37;96528.09;;;4.55;80.71
52441;BME280;39611;46.062;8.950;2023-03-04T05:09:04;96519.47;;;4.43;80.61
52441;BME280;39611;46.062;8.950;2023-03-04T05:11:31;96529.97;;;4.43;81.08
52441;BME280;39611;46.062;8.950;2023-03-04T05:13:57;96522.63;;;4.16;82.15
52441;BME280;39611;46.062;8.950;2023-03-04T05:16:24;96522.63;;;4.16;82.16
52441;BME280;39611;46.062;8.950;2023-03-04T05:18:50;96526.72;;;4.24;82.03
52441;BME280;39611;46.062;8.950;2023-03-04T05:21:17;96515.75;;;4.39;80.93
52441;BME280;39611;46.062;8.950;2023-03-04T05:23:43;96526.13;;;4.34;81.68
52441;BME280;39611;46.062;8.950;2023-03-04T05:26:13;96519.78;;;4.06;82.02
52441;BME280;39611;46.062;8.950;2023-03-04T05:28:40;96528.22;;;3.97;82.88
52441;BME280;39611;46.062;8.950;2023-03-04T05:31:07;96515.69;;;3.99;83.14
52441;BME280;39611;46.062;8.950;2023-03-04T05:33:34;96520.00;;;4.16;81.99
52441;BME280;39611;46.062;8.950;2023-03-04T05:36:01;96522.41;;;4.06;82.64
52441;BME280;39611;46.062;8.950;2023-03-04T05:38:27;96521.72;;;3.99;82.85
52441;BME280;39611;46.062;8.950;2023-03-04T05:40:56;96518.31;;;4.10;82.02
52441;BME280;39611;46.062;8.950;2023-03-04T05:43:24;96525.13;;;4.23;81.94
52441;BME280;39611;46.062;8.950;2023-03-04T05:45:51;96523.44;;;4.05;82.64
52441;BME280;39611;46.062;8.950;2023-03-04T05:48:17;96520.38;;;3.97;82.84
52441;BME280;39611;46.062;8.950;2023-03-04T05:50:44;96526.16;;;3.99;82.57
52441;BME280;39611;46.062;8.950;2023-03-04T05:53:11;96520.94;;;3.99;81.98
52441;BME280;39611;46.062;8.950;2023-03-04T05:55:37;96519.44;;;4.14;81.07
52441;BME280;39611;46.062;8.950;2023-03-04T05:58:04;96521.38;;;4.19;81.63
52441;BME280;39611;46.062;8.950;2023-03-04T06:00:30;96523.44;;;4.05;81.62
52441;BME280;39611;46.062;8.950;2023-03-04T06:02:56;96521.28;;;3.90;82.12
52441;BME280;39611;46.062;8.950;2023-03-04T06:05:23;96528.22;;;3.97;81.82
52441;BME280;39611;46.062;8.950;2023-03-04T06:07:49;96524.91;;;4.01;81.30
52441;BME280;39611;46.062;8.950;2023-03-04T06:10:16;96536.19;;;4.13;81.25
52441;BME280;39611;46.062;8.950;2023-03-04T06:12:43;96534.25;;;4.09;81.10
52441;BME280;39611;46.062;8.950;2023-03-04T06:15:10;96537.75;;;4.14;80.68
52441;BME280;39611;46.062;8.950;2023-03-04T06:17:38;96536.28;;;4.19;80.39
52441;BME280;39611;46.062;8.950;2023-03-04T06:20:09;96534.47;;;4.19;80.58
52441;BME280;39611;46.062;8.950;2023-03-04T06:22:36;96542.00;;;3.92;82.06
52441;BME280;39611;46.062;8.950;2023-03-04T06:25:02;96547.47;;;4.02;81.49
52441;BME280;39611;46.062;8.950;2023-03-04T06:27:29;96541.63;;;4.12;81.33
52441;BME280;39611;46.062;8.950;2023-03-04T06:29:55;96536.88;;;3.97;81.93
52441;BME280;39611;46.062;8.950;2023-03-04T06:32:22;96539.84;;;4.01;81.47
52441;BME280;39611;46.062;8.950;2023-03-04T06:34:48;96539.47;;;4.21;80.71
52441;BME280;39611;46.062;8.950;2023-03-04T06:37:15;96535.50;;;4.06;81.42
52441;BME280;39611;46.062;8.950;2023-03-04T06:39:41;96540.38;;;4.14;80.95
52441;BME280;39611;46.062;8.950;2023-03-04T06:42:08;96544.94;;;4.31;80.27
52441;BME280;39611;46.062;8.950;2023-03-04T06:44:34;96545.38;;;4.28;80.34
52441;BME280;39611;46.062;8.950;2023-03-04T06:47:01;96548.09;;;4.33;80.10
52441;BME280;39611;46.062;8.950;2023-03-04T06:49:27;96548.91;;;4.33;81.18
52441;BME280;39611;46.062;8.950;2023-03-04T06:51:54;96557.69;;;4.15;82.31
52441;BME280;39611;46.062;8.950;2023-03-04T06:54:20;96552.91;;;4.12;82.35
52441;BME280;39611;46.062;8.950;2023-03-04T06:56:47;96555.88;;;4.04;82.40
52441;BME280;39611;46.062;8.950;2023-03-04T06:59:13;96553.47;;;4.14;81.25
52441;BME280;39611;46.062;8.950;2023-03-04T07:01:40;96554.38;;;4.20;80.87
52441;BME280;39611;46.062;8.950;2023-03-04T07:04:07;96554.16;;;4.33;80.12
52441;BME280;39611;46.062;8.950;2023-03-04T07:06:33;96562.53;;;4.35;80.04
52441;BME280;39611;46.062;8.950;2023-03-04T07:09:00;96558.88;;;4.48;79.58
52441;BME280;39611;46.062;8.950;2023-03-04T07:11:26;96554.94;;;4.34;81.84
52441;BME280;39611;46.062;8.950;2023-03-04T07:13:53;96565.53;;;4.27;81.79
52441;BME280;39611;46.062;8.950;2023-03-04T07:16:20;96556.50;;;4.47;80.12
52441;BME280;39611;46.062;8.950;2023-03-04T07:18:47;96561.78;;;4.64;79.68
52441;BME280;39611;46.062;8.950;2023-03-04T07:21:15;96558.25;;;4.70;79.01
52441;BME280;39611;46.062;8.950;2023-03-04T07:23:42;96563.75;;;4.56;79.67
52441;BME280;39611;46.062;8.950;2023-03-04T07:26:08;96565.34;;;4.57;79.67
52441;BME280;39611;46.062;8.950;2023-03-04T07:28:35;96568.28;;;4.73;79.50
52441;BME280;39611;46.062;8.950;2023-03-04T07:31:12;96568.13;;;4.79;79.47
52441;BME280;39611;46.062;8.950;2023-03-04T07:33:40;96566.88;;;4.82;79.50
52441;BME280;39611;46.062;8.950;2023-03-04T07:36:07;96567.34;;;4.79;80.72
52441;BME280;39611;46.062;8.950;2023-03-04T07:38:33;96565.59;;;4.85;80.96
52441;BME280;39611;46.062;8.950;2023-03-04T07:41:00;96567.06;;;4.92;80.93
52441;BME280;39611;46.062;8.950;2023-03-04T07:43:27;96573.16;;;5.10;80.94
52441;BME280;39611;46.062;8.950;2023-03-04T07:46:01;96571.09;;;5.12;81.83
52441;BME280;39611;46.062;8.950;2023-03-04T07:48:27;96562.75;;;5.15;81.56
52441;BME280;39611;46.062;8.950;2023-03-04T07:53:37;96564.28;;;5.28;80.82
52441;BME280;39611;46.062;8.950;2023-03-04T07:56:05;96567.22;;;5.31;81.09
52441;BME280;39611;46.062;8.950;2023-03-04T07:58:32;96562.06;;;5.36;80.86
52441;BME280;39611;46.062;8.950;2023-03-04T08:00:58;96558.41;;;5.37;80.78
52441;BME280;39611;46.062;8.950;2023-03-04T08:03:25;96563.50;;;5.44;80.68
52441;BME280;39611;46.062;8.950;2023-03-04T08:05:53;96563.34;;;5.51;81.11
52441;BME280;39611;46.062;8.950;2023-03-04T08:08:20;96569.47;;;5.56;80.96
52441;BME280;39611;46.062;8.950;2023-03-04T08:10:46;96554.84;;;5.60;79.82
52441;BME280;39611;46.062;8.950;2023-03-04T08:13:13;96564.59;;;5.65;79.92
52441;BME280;39611;46.062;8.950;2023-03-04T08:15:41;96557.59;;;5.70;80.51
52441;BME280;39611;46.062;8.950;2023-03-04T08:18:07;96558.25;;;5.78;78.62
52441;BME280;39611;46.062;8.950;2023-03-04T08:20:34;96563.34;;;5.84;79.85
52441;BME280;39611;46.062;8.950;2023-03-04T08:23:01;96552.91;;;5.89;79.89
52441;BME280;39611;46.062;8.950;2023-03-04T08:25:27;96550.69;;;5.98;79.39
52441;BME280;39611;46.062;8.950;2023-03-04T08:27:54;96546.56;;;6.02;79.09
52441;BME280;39611;46.062;8.950;2023-03-04T08:30:20;96547.44;;;6.08;78.45
52441;BME280;39611;46.062;8.950;2023-03-04T08:32:47;96540.19;;;6.15;77.93
52441;BME280;39611;46.062;8.950;2023-03-04T08:35:13;96543.09;;;6.19;78.09
52441;BME280;39611;46.062;8.950;2023-03-04T08:37:40;96538.22;;;6.27;78.19
52441;BME280;39611;46.062;8.950;2023-03-04T08:40:06;96534.13;;;6.37;77.84
52441;BME280;39611;46.062;8.950;2023-03-04T08:42:33;96536.28;;;6.40;77.56
52441;BME280;39611;46.062;8.950;2023-03-04T08:44:59;96538.41;;;6.43;77.77
52441;BME280;39611;46.062;8.950;2023-03-04T08:47:26;96526.72;;;6.55;76.56
52441;BME280;39611;46.062;8.950;2023-03-04T08:49:52;96529.25;;;6.67;75.53
52441;BME280;39611;46.062;8.950;2023-03-04T08:52:19;96529.88;;;6.79;74.25
52441;BME280;39611;46.062;8.950;2023-03-04T08:54:46;96524.63;;;6.79;71.89
52441;BME280;39611;46.062;8.950;2023-03-04T08:57:12;96532.63;;;6.90;71.15
52441;BME280;39611;46.062;8.950;2023-03-04T08:59:39;96525.53;;;6.90;71.55
52441;BME280;39611;46.062;8.950;2023-03-04T09:02:05;96520.34;;;6.95;70.56
52441;BME280;39611;46.062;8.950;2023-03-04T09:04:32;96525.19;;;7.09;71.13
52441;BME280;39611;46.062;8.950;2023-03-04T09:06:58;96523.41;;;7.14;71.71
52441;BME280;39611;46.062;8.950;2023-03-04T09:09:25;96527.09;;;7.18;71.47
52441;BME280;39611;46.062;8.950;2023-03-04T09:11:51;96517.97;;;7.26;70.51
52441;BME280;39611;46.062;8.950;2023-03-04T09:14:18;96523.00;;;7.28;69.97
52441;BME280;39611;46.062;8.950;2023-03-04T09:16:44;96510.72;;;7.38;69.76
52441;BME280;39611;46.062;8.950;2023-03-04T09:19:10;96509.38;;;7.36;69.79
52441;BME280;39611;46.062;8.950;2023-03-04T09:21:37;96502.06;;;7.43;69.19
52441;BME280;39611;46.062;8.950;2023-03-04T09:24:04;96502.34;;;7.47;70.63
52441;BME280;39611;46.062;8.950;2023-03-04T09:26:30;96506.84;;;7.51;67.76
52441;BME280;39611;46.062;8.950;2023-03-04T09:28:58;96494.53;;;7.57;68.44
52441;BME280;39611;46.062;8.950;2023-03-04T09:31:27;96498.78;;;7.63;68.04
52441;BME280;39611;46.062;8.950;2023-03-04T09:33:56;96498.00;;;7.68;67.51
52441;BME280;39611;46.062;8.950;2023-03-04T09:36:23;96494.38;;;7.74;66.00
52441;BME280;39611;46.062;8.950;2023-03-04T09:38:50;96496.00;;;7.80;66.16
52441;BME280;39611;46.062;8.950;2023-03-04T09:41:25;96487.09;;;7.86;66.01
52441;BME280;39611;46.062;8.950;2023-03-04T09:43:56;96486.59;;;7.89;65.63
52441;BME280;39611;46.062;8.950;2023-03-04T09:46:35;96487.13;;;7.96;66.46
52441;BME280;39611;46.062;8.950;2023-03-04T09:49:03;96480.59;;;8.09;65.06
52441;BME280;39611;46.062;8.950;2023-03-04T09:51:43;96481.94;;;8.12;62.44
52441;BME280;39611;46.062;8.950;2023-03-04T10:00:13;96472.50;;;8.21;62.77
52441;BME280;39611;46.062;8.950;2023-03-04T10:03:11;96469.88;;;8.26;63.53
52441;BME280;39611;46.062;8.950;2023-03-04T10:05:50;96476.00;;;8.37;62.48
52441;BME280;39611;46.062;8.950;2023-03-04T10:11:24;96467.94;;;8.59;62.14
52441;BME280;39611;46.062;8.950;2023-03-04T10:14:10;96461.31;;;8.61;62.19
52441;BME280;39611;46.062;8.950;2023-03-04T10:17:04;96460.56;;;8.71;61.67
52441;BME280;39611;46.062;8.950;2023-03-04T10:22:28;96450.03;;;8.81;61.67
52441;BME280;39611;46.062;8.950;2023-03-04T10:24:59;96460.34;;;8.88;62.58
52441;BME280;39611;46.062;8.950;2023-03-04T10:27:28;96465.63;;;8.98;62.82
52441;BME280;39611;46.062;8.950;2023-03-04T10:29:57;96459.56;;;8.92;62.51
52441;BME280;39611;46.062;8.950;2023-03-04T10:32:25;96453.75;;;9.01;61.62
52441;BME280;39611;46.062;8.950;2023-03-04T10:34:52;96455.84;;;8.99;60.66
52441;BME280;39611;46.062;8.950;2023-03-04T10:37:18;96457.44;;;9.00;60.77
52441;BME280;39611;46.062;8.950;2023-03-04T10:39:46;96453.22;;;8.93;59.87
52441;BME280;39611;46.062;8.950;2023-03-04T10:44:50;96446.88;;;9.05;61.22
52441;BME280;39611;46.062;8.950;2023-03-04T10:47:17;96441.59;;;9.20;62.13
52441;BME280;39611;46.062;8.950;2023-03-04T10:49:58;96436.63;;;9.24;61.98
52441;BME280;39611;46.062;8.950;2023-03-04T10:52:40;96442.16;;;9.27;62.23
52441;BME280;39611;46.062;8.950;2023-03-04T10:55:15;96434.75;;;9.19;62.03
52441;BME280;39611;46.062;8.950;2023-03-04T10:57:43;96438.44;;;9.28;61.81
52441;BME280;39611;46.062;8.950;2023-03-04T11:02:44;96426.28;;;9.48;59.22
52441;BME280;39611;46.062;8.950;2023-03-04T11:07:50;96430.25;;;9.50;59.67
52441;BME280;39611;46.062;8.950;2023-03-04T11:18:32;96406.56;;;10.05;55.80
52441;BME280;39611;46.062;8.950;2023-03-04T11:21:02;96402.25;;;10.30;55.22
52441;BME280;39611;46.062;8.950;2023-03-04T11:23:49;96395.41;;;10.18;54.42
52441;BME280;39611;46.062;8.950;2023-03-04T11:26:48;96393.34;;;10.10;56.34
52441;BME280;39611;46.062;8.950;2023-03-04T11:29:21;96391.69;;;10.24;53.62
52441;BME280;39611;46.062;8.950;2023-03-04T11:31:57;96385.56;;;10.34;52.83
52441;BME280;39611;46.062;8.950;2023-03-04T11:38:07;96370.28;;;10.31;56.74
52441;BME280;39611;46.062;8.950;2023-03-04T11:40:45;96371.03;;;10.37;56.19
52441;BME280;39611;46.062;8.950;2023-03-04T11:43:18;96365.22;;;10.35;57.03
52441;BME280;39611;46.062;8.950;2023-03-04T11:48:37;96354.81;;;10.54;54.48
52441;BME280;39611;46.062;8.950;2023-03-04T11:56:43;96343.78;;;10.76;52.88
52441;BME280;39611;46.062;8.950;2023-03-04T11:59:59;96338.09;;;10.58;54.72
52441;BME280;39611;46.062;8.950;2023-03-04T12:04:58;96323.28;;;10.57;51.90
52441;BME280;39611;46.062;8.950;2023-03-04T12:16:14;96307.31;;;10.73;51.63
52441;BME280;39611;46.062;8.950;2023-03-04T12:37:31;96271.50;;;11.09;49.71
52441;BME280;39611;46.062;8.950;2023-03-04T12:43:07;96264.91;;;11.07;50.02
52441;BME280;39611;46.062;8.950;2023-03-04T12:45:48;96254.31;;;11.07;50.89
52441;BME280;39611;46.062;8.950;2023-03-04T12:48:31;96256.84;;;10.93;51.27
52441;BME280;39611;46.062;8.950;2023-03-04T12:51:21;96246.56;;;11.15;51.76
52441;BME280;39611;46.062;8.950;2023-03-04T12:53:54;96246.94;;;11.28;51.67
52441;BME280;39611;46.062;8.950;2023-03-04T12:56:34;96241.00;;;11.36;51.08
52441;BME280;39611;46.062;8.950;2023-03-04T12:59:03;96236.06;;;11.29;51.70
52441;BME280;39611;46.062;8.950;2023-03-04T13:02:01;96238.91;;;11.14;49.63
52441;BME280;39611;46.062;8.950;2023-03-04T13:04:56;96237.38;;;11.08;51.53
52441;BME280;39611;46.062;8.950;2023-03-04T13:10:18;96231.94;;;11.42;49.39
52441;BME280;39611;46.062;8.950;2023-03-04T13:12:48;96220.41;;;11.33;49.60
52441;BME280;39611;46.062;8.950;2023-03-04T13:15:29;96220.63;;;11.36;50.60
52441;BME280;39611;46.062;8.950;2023-03-04T13:18:01;96215.03;;;11.38;52.51
52441;BME280;39611;46.062;8.950;2023-03-04T13:20:40;96221.94;;;11.39;50.86
52441;BME280;39611;46.062;8.950;2023-03-04T13:25:41;96216.84;;;11.43;50.58
52441;BME280;39611;46.062;8.950;2023-03-04T13:41:19;96192.88;;;11.53;50.67
52441;BME280;39611;46.062;8.950;2023-03-04T13:43:53;96194.59;;;11.81;48.77
52441;BME280;39611;46.062;8.950;2023-03-04T13:51:23;96189.09;;;11.78;48.53
52441;BME280;39611;46.062;8.950;2023-03-04T14:01:48;96183.19;;;11.62;52.19
52441;BME280;39611;46.062;8.950;2023-03-04T14:04:17;96178.34;;;11.50;51.92
52441;BME280;39611;46.062;8.950;2023-03-04T14:06:48;96181.00;;;11.50;51.28
52441;BME280;39611;46.062;8.950;2023-03-04T14:09:18;96179.44;;;11.49;51.02
52441;BME280;39611;46.062;8.950;2023-03-04T14:11:46;96180.28;;;11.64;50.56
52441;BME280;39611;46.062;8.950;2023-03-04T14:14:23;96176.84;;;11.63;51.42
52441;BME280;39611;46.062;8.950;2023-03-04T14:17:29;96169.81;;;11.72;49.82
52441;BME280;39611;46.062;8.950;2023-03-04T14:19:56;96170.91;;;11.90;49.66
52441;BME280;39611;46.062;8.950;2023-03-04T14:22:29;96170.91;;;11.90;49.43
52441;BME280;39611;46.062;8.950;2023-03-04T14:25:19;96165.72;;;11.80;50.50
52441;BME280;39611;46.062;8.950;2023-03-04T14:27:46;96162.28;;;11.79;50.47
52441;BME280;39611;46.062;8.950;2023-03-04T14:30:24;96155.00;;;11.90;49.26
52441;BME280;39611;46.062;8.950;2023-03-04T14:33:08;96156.41;;;11.82;48.87
52441;BME280;39611;46.062;8.950;2023-03-04T14:35:36;96155.13;;;11.80;49.35
52441;BME280;39611;46.062;8.950;2023-03-04T14:38:06;96148.47;;;11.82;50.21
52441;BME280;39611;46.062;8.950;2023-03-04T14:40:37;96143.97;;;11.83;48.63
52441;BME280;39611;46.062;8.950;2023-03-04T14:43:21;96136.38;;;11.95;47.56
52441;BME280;39611;46.062;8.950;2023-03-04T14:45:50;96138.94;;;11.81;49.68
52441;BME280;39611;46.062;8.950;2023-03-04T14:48:30;96135.41;;;11.91;48.71
52441;BME280;39611;46.062;8.950;2023-03-04T14:50:58;96134.63;;;11.91;49.06
52441;BME280;39611;46.062;8.950;2023-03-04T14:53:27;96132.66;;;11.96;48.91
52441;BME280;39611;46.062;8.950;2023-03-04T14:56:05;96137.09;;;11.82;50.40
52441;BME280;39611;46.062;8.950;2023-03-04T14:58:35;96135.41;;;11.91;49.05
52441;BME280;39611;46.062;8.950;2023-03-04T15:01:18;96130.69;;;11.88;48.67
52441;BME280;39611;46.062;8.950;2023-03-04T15:04:02;96124.28;;;11.89;49.02
52441;BME280;39611;46.062;8.950;2023-03-04T15:06:32;96125.13;;;11.85;49.73
52441;BME280;39611;46.062;8.950;2023-03-04T15:09:05;96132.25;;;11.89;49.90
52441;BME280;39611;46.062;8.950;2023-03-04T15:11:48;96130.38;;;11.71;50.30